Time;durP1;ratioP1;P1;durP2;ratioP2;P2;SDS_P1;SDS_P2;PMS_P1;PMS_P2;Temp;Humidity;BMP_temperature;BMP_pressure;BME280_temperature;BME280_humidity;BME280_pressure;Samples;Min_cycle;Max_cycle;Signal;HPM_P1;HPM_P2
2023/08/11 00:01:40;;;;;;;10.68;3.35;;;18.00;99.90;;;;;;5067053;28;20089;-71
2023/08/11 00:04:06;;;;;;;10.98;4.30;;;18.00;99.90;;;;;;5067125;28;20028;-72
2023/08/11 00:06:32;;;;;;;6.40;3.65;;;18.00;99.90;;;;;;5065831;28;20024;-72
2023/08/11 00:08:58;;;;;;;7.72;3.47;;;18.00;99.90;;;;;;5066875;28;20381;-72
2023/08/11 00:11:24;;;;;;;9.20;3.92;;;18.00;99.90;;;;;;5084897;28;20036;-72
2023/08/11 00:13:53;;;;;;;10.55;5.07;;;18.00;99.90;;;;;;5085763;28;20086;-72
2023/08/11 00:16:18;;;;;;;9.80;4.50;;;18.00;99.90;;;;;;5085221;28;20041;-72
2023/08/11 00:18:45;;;;;;;9.68;5.03;;;18.00;99.90;;;;;;5086904;28;20057;-74
2023/08/11 00:21:12;;;;;;;8.68;5.32;;;18.00;99.90;;;;;;5087131;28;20032;-71
2023/08/11 00:23:39;;;;;;;9.65;5.45;;;18.00;99.90;;;;;;5085366;28;20082;-72
2023/08/11 00:26:06;;;;;;;11.52;5.60;;;18.00;99.90;;;;;;5081384;28;20424;-73
2023/08/11 00:28:32;;;;;;;12.57;5.25;;;18.00;99.90;;;;;;5066757;28;20021;-72
2023/08/11 00:30:57;;;;;;;10.02;5.50;;;18.00;99.90;;;;;;5066225;28;20032;-72
2023/08/11 00:33:23;;;;;;;11.18;5.03;;;18.00;99.90;;;;;;5066842;28;20025;-73
2023/08/11 00:35:49;;;;;;;8.90;5.78;;;17.90;99.90;;;;;;5066330;28;20079;-72
2023/08/11 00:38:14;;;;;;;11.32;5.90;;;18.00;99.90;;;;;;5066209;28;20044;-72
2023/08/11 00:40:40;;;;;;;12.32;6.47;;;17.90;99.90;;;;;;5065097;28;20025;-73
2023/08/11 00:43:05;;;;;;;15.20;7.00;;;17.90;99.90;;;;;;5066337;28;20048;-72
2023/08/11 00:45:31;;;;;;;8.80;6.65;;;18.00;99.90;;;;;;5065962;28;20033;-71
2023/08/11 00:47:57;;;;;;;12.27;6.32;;;18.00;99.90;;;;;;5066225;28;20550;-72
2023/08/11 00:50:23;;;;;;;12.60;6.30;;;18.00;99.90;;;;;;5065895;28;20032;-70
2023/08/11 00:52:50;;;;;;;11.70;6.57;;;18.00;99.90;;;;;;5064493;28;20052;-71
2023/08/11 00:55:18;;;;;;;12.32;6.35;;;18.00;99.90;;;;;;5070491;28;20074;-73
2023/08/11 00:57:45;;;;;;;14.52;6.53;;;18.00;99.90;;;;;;5064522;28;20032;-72
2023/08/11 01:00:15;;;;;;;11.68;6.28;;;17.90;99.90;;;;;;5064936;28;20025;-72
2023/08/11 01:02:43;;;;;;;8.50;6.15;;;18.00;99.90;;;;;;5066314;28;20032;-73
2023/08/11 01:05:11;;;;;;;11.95;6.90;;;17.90;99.90;;;;;;5083693;28;20029;-72
2023/08/11 01:08:00;;;;;;;13.23;6.88;;;17.90;99.90;;;;;;5073617;28;20035;-71
2023/08/11 01:10:26;;;;;;;11.93;7.32;;;17.90;99.90;;;;;;5080207;28;20036;-70
2023/08/11 01:13:28;;;;;;;12.85;6.82;;;17.90;99.90;;;;;;5065539;28;20029;-72
2023/08/11 01:15:58;;;;;;;11.18;6.30;;;17.90;99.90;;;;;;5076980;28;20044;-72
2023/08/11 01:18:24;;;;;;;10.20;6.13;;;17.80;99.90;;;;;;5064111;28;20104;-71
2023/08/11 01:20:55;;;;;;;11.40;6.82;;;17.90;99.90;;;;;;5065637;28;20108;-72
2023/08/11 01:23:24;;;;;;;13.27;6.85;;;17.90;99.90;;;;;;5065775;28;20017;-71
2023/08/11 01:25:53;;;;;;;10.25;6.57;;;17.80;99.90;;;;;;5065139;28;20025;-71
2023/08/11 01:28:19;;;;;;;14.80;7.32;;;17.80;99.90;;;;;;5065648;28;20017;-71
2023/08/11 01:30:45;;;;;;;10.05;6.18;;;17.80;99.90;;;;;;5064197;28;20367;-72
2023/08/11 01:33:10;;;;;;;11.98;6.43;;;17.80;99.90;;;;;;5063826;28;20028;-72
2023/08/11 01:35:36;;;;;;;10.13;6.80;;;17.80;99.90;;;;;;5065490;28;20024;-71
2023/08/11 01:38:02;;;;;;;9.52;6.50;;;17.80;99.90;;;;;;5081258;28;20086;-71
2023/08/11 01:40:29;;;;;;;10.70;7.00;;;17.80;99.90;;;;;;5083740;28;20021;-72
2023/08/11 01:42:56;;;;;;;12.75;6.80;;;17.80;99.90;;;;;;5085441;28;20023;-71
2023/08/11 01:45:22;;;;;;;9.75;6.38;;;17.80;99.90;;;;;;5084987;28;20024;-72
2023/08/11 01:47:49;;;;;;;9.48;5.65;;;17.80;99.90;;;;;;5084729;28;20021;-72
2023/08/11 01:50:17;;;;;;;10.27;5.65;;;17.70;99.90;;;;;;5085103;28;20785;-73
2023/08/11 01:52:45;;;;;;;11.77;5.75;;;17.80;99.90;;;;;;5084513;28;20497;-72
2023/08/11 01:55:13;;;;;;;12.82;6.13;;;17.70;99.90;;;;;;5083449;28;20031;-73
2023/08/11 01:57:39;;;;;;;9.30;6.07;;;17.70;99.90;;;;;;5085005;28;20037;-73
2023/08/11 02:00:16;;;;;;;9.43;5.72;;;17.70;99.90;;;;;;5084958;28;20028;-71
2023/08/11 02:02:43;;;;;;;7.45;5.60;;;17.70;99.90;;;;;;5083703;28;20029;-73
2023/08/11 02:05:11;;;;;;;8.90;5.07;;;17.70;99.90;;;;;;5085261;28;20060;-72
2023/08/11 02:07:40;;;;;;;11.80;6.05;;;17.60;99.90;;;;;;5084851;28;20059;-73
2023/08/11 02:10:08;;;;;;;14.18;5.22;;;17.70;99.90;;;;;;5070683;28;20054;-71
2023/08/11 02:12:36;;;;;;;8.10;4.88;;;17.60;99.90;;;;;;5063623;28;20025;-72
2023/08/11 02:15:04;;;;;;;10.70;5.28;;;17.60;99.90;;;;;;5062513;28;20033;-71
2023/08/11 02:17:31;;;;;;;11.82;5.15;;;17.60;99.90;;;;;;5072871;28;20087;-71
2023/08/11 02:19:58;;;;;;;11.68;5.82;;;17.60;99.90;;;;;;5064619;28;20024;-73
2023/08/11 02:22:24;;;;;;;13.93;5.65;;;17.60;99.90;;;;;;5064221;28;20017;-72
2023/08/11 02:24:49;;;;;;;10.68;4.82;;;17.60;99.90;;;;;;5063161;28;20025;-71
2023/08/11 02:27:15;;;;;;;8.35;4.97;;;17.50;99.90;;;;;;5063107;28;20029;-72
2023/08/11 02:29:41;;;;;;;8.25;4.80;;;17.50;99.90;;;;;;5062913;28;20025;-72
2023/08/11 02:32:07;;;;;;;7.50;4.63;;;17.50;99.90;;;;;;5064502;28;20088;-72
2023/08/11 02:34:34;;;;;;;10.38;5.43;;;17.50;99.90;;;;;;5063036;28;20029;-72
2023/08/11 02:37:00;;;;;;;11.85;5.00;;;17.50;99.90;;;;;;5062648;28;20041;-72
2023/08/11 02:39:26;;;;;;;10.43;5.03;;;17.50;99.90;;;;;;5064507;28;20021;-72
2023/08/11 02:41:52;;;;;;;9.65;4.90;;;17.50;99.90;;;;;;5062826;28;20104;-72
2023/08/11 02:44:18;;;;;;;9.88;5.55;;;17.50;99.90;;;;;;5062513;28;20025;-72
2023/08/11 02:46:43;;;;;;;16.35;5.88;;;17.50;99.90;;;;;;5064349;28;20033;-71
2023/08/11 02:49:09;;;;;;;10.75;5.28;;;17.50;99.90;;;;;;5062903;28;20025;-72
2023/08/11 02:51:35;;;;;;;12.30;5.43;;;17.50;99.90;;;;;;5063678;28;20049;-71
2023/08/11 02:54:01;;;;;;;8.32;5.07;;;17.50;99.90;;;;;;5064330;28;20059;-72
2023/08/11 02:56:27;;;;;;;11.88;5.57;;;17.50;99.90;;;;;;5062422;28;20044;-72
2023/08/11 02:58:56;;;;;;;9.43;5.25;;;17.50;99.90;;;;;;5062645;28;20462;-73
2023/08/11 03:01:25;;;;;;;9.68;5.40;;;17.50;99.90;;;;;;5073328;28;20016;-73
2023/08/11 03:03:52;;;;;;;8.88;5.03;;;17.50;99.90;;;;;;5084340;28;20032;-73
2023/08/11 03:06:18;;;;;;;8.15;4.15;;;17.50;99.90;;;;;;5088383;28;20024;-73
2023/08/11 03:08:44;;;;;;;7.68;4.57;;;17.50;99.90;;;;;;5088421;28;20021;-73
2023/08/11 03:11:10;;;;;;;9.73;4.30;;;17.50;99.90;;;;;;5086713;28;20052;-72
2023/08/11 03:13:36;;;;;;;14.05;4.47;;;17.50;99.90;;;;;;5088082;28;20040;-72
2023/08/11 03:16:02;;;;;;;7.80;4.55;;;17.50;99.90;;;;;;5087910;28;20058;-73
2023/08/11 03:18:28;;;;;;;8.25;4.20;;;17.40;99.90;;;;;;5087849;28;20024;-74
2023/08/11 03:20:53;;;;;;;5.93;4.07;;;17.40;99.90;;;;;;5087956;28;20035;-72
2023/08/11 03:23:19;;;;;;;9.25;3.90;;;17.40;99.90;;;;;;5087666;28;20119;-74
2023/08/11 03:25:45;;;;;;;6.45;4.15;;;17.40;99.90;;;;;;5086404;28;20021;-74
2023/08/11 03:28:11;;;;;;;7.43;4.38;;;17.40;99.90;;;;;;5087972;28;20029;-74
2023/08/11 03:30:37;;;;;;;6.72;4.03;;;17.40;99.90;;;;;;5085075;28;20061;-74
2023/08/11 03:33:03;;;;;;;8.63;3.83;;;17.40;99.90;;;;;;5068013;28;20025;-74
2023/08/11 03:35:32;;;;;;;7.38;3.95;;;17.40;99.90;;;;;;5066325;28;20052;-72
2023/08/11 03:37:57;;;;;;;8.35;4.38;;;17.40;99.90;;;;;;5080301;28;20059;-74
2023/08/11 03:40:23;;;;;;;6.78;4.20;;;17.30;99.90;;;;;;5065933;28;20033;-74
2023/08/11 03:42:48;;;;;;;10.82;4.10;;;17.40;99.90;;;;;;5071307;28;20036;-72
2023/08/11 03:45:14;;;;;;;8.40;4.15;;;17.40;99.90;;;;;;5085904;28;20028;-75
2023/08/11 03:47:41;;;;;;;8.98;4.30;;;17.30;99.90;;;;;;5084126;28;20105;-72
2023/08/11 03:50:08;;;;;;;8.00;4.40;;;17.30;99.90;;;;;;5067418;28;20032;-73
2023/08/11 03:52:34;;;;;;;8.77;4.10;;;17.40;99.90;;;;;;5066786;28;20926;-73
2023/08/11 03:55:00;;;;;;;7.97;4.10;;;17.40;99.90;;;;;;5066128;28;20105;-73
2023/08/11 03:57:26;;;;;;;8.35;4.20;;;17.40;99.90;;;;;;5066989;28;20060;-74
2023/08/11 03:59:52;;;;;;;10.93;4.38;;;17.40;99.90;;;;;;5065801;28;20118;-74
2023/08/11 04:02:17;;;;;;;7.28;3.95;;;17.40;99.90;;;;;;5067134;28;20029;-73
2023/08/11 04:04:43;;;;;;;10.00;4.25;;;17.30;99.90;;;;;;5067141;28;20053;-74
2023/08/11 04:07:10;;;;;;;11.38;4.53;;;17.30;99.90;;;;;;5066980;28;20036;-75
2023/08/11 04:09:39;;;;;;;10.65;4.47;;;17.30;99.90;;;;;;5067117;28;20119;-73
2023/08/11 04:12:06;;;;;;;8.77;4.35;;;17.30;99.90;;;;;;5066779;28;20076;-72
2023/08/11 04:14:32;;;;;;;11.38;4.88;;;17.30;99.90;;;;;;5067333;28;20036;-73
2023/08/11 04:16:58;;;;;;;8.13;4.20;;;17.30;99.90;;;;;;5068663;28;20040;-75
2023/08/11 04:19:23;;;;;;;9.30;4.00;;;17.30;99.90;;;;;;5075739;28;20037;-72
2023/08/11 04:21:49;;;;;;;13.23;4.30;;;17.30;99.90;;;;;;5064777;28;20038;-73
2023/08/11 04:24:17;;;;;;;6.57;4.10;;;17.30;99.90;;;;;;5076414;28;20123;-73
2023/08/11 04:26:43;;;;;;;7.30;4.20;;;17.20;99.90;;;;;;5076243;28;20021;-73
2023/08/11 04:29:09;;;;;;;8.93;4.00;;;17.20;99.90;;;;;;5080705;28;20111;-73
2023/08/11 04:31:34;;;;;;;8.30;4.30;;;17.30;99.90;;;;;;5085503;28;20115;-74
2023/08/11 04:34:00;;;;;;;8.48;4.07;;;17.20;99.90;;;;;;5083891;28;20032;-72
2023/08/11 04:36:27;;;;;;;9.98;4.47;;;17.30;99.90;;;;;;5085489;28;20119;-73
2023/08/11 04:38:53;;;;;;;5.93;3.97;;;17.30;99.90;;;;;;5084060;28;20029;-73
2023/08/11 04:41:23;;;;;;;8.68;4.18;;;17.20;99.90;;;;;;5083949;28;20031;-72
2023/08/11 04:43:48;;;;;;;9.05;4.50;;;17.30;99.90;;;;;;5086523;28;20082;-72
2023/08/11 04:46:15;;;;;;;9.95;4.82;;;17.30;99.90;;;;;;5085091;28;20393;-75
2023/08/11 04:48:41;;;;;;;6.95;4.57;;;17.20;99.90;;;;;;5085019;28;20024;-74
2023/08/11 04:51:07;;;;;;;10.15;4.70;;;17.30;99.90;;;;;;5086311;28;20112;-72
2023/08/11 04:53:33;;;;;;;16.00;5.03;;;17.20;99.90;;;;;;5072162;28;20033;-73
2023/08/11 04:55:58;;;;;;;9.93;5.35;;;17.30;99.90;;;;;;5078618;28;20048;-73
2023/08/11 04:58:24;;;;;;;13.82;5.25;;;17.30;99.90;;;;;;5071130;28;20025;-72
2023/08/11 05:00:50;;;;;;;14.13;5.15;;;17.30;99.90;;;;;;5076432;28;20058;-73
2023/08/11 05:03:16;;;;;;;11.93;5.38;;;17.30;99.90;;;;;;5078210;28;20025;-72
2023/08/11 05:05:44;;;;;;;14.55;4.82;;;17.30;99.90;;;;;;5086362;28;20027;-73
2023/08/11 05:08:10;;;;;;;9.50;5.05;;;17.30;99.90;;;;;;5086098;28;20111;-73
2023/08/11 05:10:36;;;;;;;12.18;5.28;;;17.40;99.90;;;;;;5086102;28;20021;-75
2023/08/11 05:13:01;;;;;;;12.80;5.47;;;17.30;99.90;;;;;;5084622;28;20043;-73
2023/08/11 05:15:27;;;;;;;12.15;5.28;;;17.40;99.90;;;;;;5085628;28;20025;-73
2023/08/11 05:17:53;;;;;;;8.48;5.15;;;17.40;99.90;;;;;;5075261;28;20040;-73
2023/08/11 05:20:18;;;;;;;12.27;4.55;;;17.40;99.90;;;;;;5075994;28;20028;-72
2023/08/11 05:22:44;;;;;;;9.10;4.75;;;17.40;99.90;;;;;;5076393;28;20040;-73
2023/08/11 05:25:10;;;;;;;12.20;5.20;;;17.40;99.90;;;;;;5064569;28;20032;-73
2023/08/11 05:27:35;;;;;;;8.75;5.03;;;17.40;99.90;;;;;;5064768;28;20094;-73
2023/08/11 05:30:01;;;;;;;11.10;4.90;;;17.40;99.90;;;;;;5063862;28;20059;-73
2023/08/11 05:32:28;;;;;;;13.50;6.18;;;17.50;99.90;;;;;;5065696;28;20025;-73
2023/08/11 05:34:55;;;;;;;10.57;5.88;;;17.50;99.90;;;;;;5065429;28;20549;-73
2023/08/11 05:37:23;;;;;;;13.93;6.05;;;17.50;99.90;;;;;;5064895;28;20040;-72
2023/08/11 05:39:49;;;;;;;9.60;5.78;;;17.50;99.90;;;;;;5065347;28;20025;-73
2023/08/11 05:42:15;;;;;;;10.43;6.38;;;17.50;99.90;;;;;;5065303;28;20033;-74
2023/08/11 05:44:41;;;;;;;7.78;5.68;;;17.60;99.90;;;;;;5063919;28;20033;-72
2023/08/11 05:47:08;;;;;;;16.75;6.32;;;17.60;99.90;;;;;;5064074;28;20123;-72
2023/08/11 05:49:33;;;;;;;10.25;5.78;;;17.60;99.90;;;;;;5065239;28;20045;-73
2023/08/11 05:51:59;;;;;;;12.38;6.15;;;17.70;99.90;;;;;;5064229;28;20083;-74
2023/08/11 05:54:24;;;;;;;9.40;5.60;;;17.70;99.90;;;;;;5072011;28;20029;-74
2023/08/11 05:56:52;;;;;;;10.35;6.43;;;17.70;99.90;;;;;;5065258;28;20077;-74
2023/08/11 05:59:19;;;;;;;10.13;6.53;;;17.70;99.90;;;;;;5064925;28;20084;-72
2023/08/11 06:01:44;;;;;;;11.43;7.07;;;17.80;99.90;;;;;;5065332;28;20025;-73
2023/08/11 06:04:10;;;;;;;12.10;6.45;;;17.80;99.90;;;;;;5076016;28;20047;-74
2023/08/11 06:06:36;;;;;;;15.68;7.50;;;17.80;99.90;;;;;;5068495;28;20061;-74
2023/08/11 06:09:03;;;;;;;20.20;7.18;;;17.80;99.90;;;;;;5070027;28;20033;-74
2023/08/11 06:11:29;;;;;;;16.65;7.43;;;17.90;99.90;;;;;;5070558;28;20020;-72
2023/08/11 06:13:54;;;;;;;17.75;7.13;;;17.90;99.90;;;;;;5073738;28;20055;-73
2023/08/11 06:16:20;;;;;;;10.68;7.28;;;18.00;99.90;;;;;;5065632;28;20044;-73
2023/08/11 06:18:46;;;;;;;17.60;7.85;;;18.00;99.90;;;;;;5064394;28;20029;-75
2023/08/11 06:21:11;;;;;;;12.70;7.15;;;18.00;99.90;;;;;;5065251;28;20029;-75
2023/08/11 06:23:37;;;;;;;13.85;7.38;;;18.10;99.90;;;;;;5075284;28;20031;-72
2023/08/11 06:26:03;;;;;;;11.20;7.22;;;18.10;99.90;;;;;;5070308;28;20052;-71
2023/08/11 06:28:29;;;;;;;14.68;8.95;;;18.10;99.90;;;;;;5064668;28;20045;-71
2023/08/11 06:30:54;;;;;;;14.88;8.40;;;18.20;99.90;;;;;;5063081;28;20025;-71
2023/08/11 06:33:20;;;;;;;14.77;8.50;;;18.20;99.90;;;;;;5065770;28;20085;-72
2023/08/11 06:35:46;;;;;;;16.42;8.35;;;18.20;99.90;;;;;;5062940;28;20036;-73
2023/08/11 06:38:11;;;;;;;20.85;8.77;;;18.30;99.90;;;;;;5068197;28;20025;-71
2023/08/11 06:40:40;;;;;;;13.90;8.98;;;18.30;99.90;;;;;;5064449;28;20079;-72
2023/08/11 06:43:06;;;;;;;13.18;8.98;;;18.30;99.90;;;;;;5064876;28;20104;-73
2023/08/11 06:45:32;;;;;;;15.50;8.82;;;18.30;99.90;;;;;;5062401;28;20092;-74
2023/08/11 06:47:58;;;;;;;17.98;8.90;;;18.40;99.90;;;;;;5064525;28;20036;-72
2023/08/11 06:50:24;;;;;;;22.30;9.75;;;18.40;99.90;;;;;;5073072;28;20329;-73
2023/08/11 06:52:50;;;;;;;17.05;9.02;;;18.40;99.90;;;;;;5062333;28;20041;-73
2023/08/11 06:55:16;;;;;;;19.50;9.98;;;18.40;99.90;;;;;;5064399;28;20029;-73
2023/08/11 06:57:42;;;;;;;17.40;9.55;;;18.50;99.90;;;;;;5073669;28;20599;-72
2023/08/11 07:00:08;;;;;;;16.65;9.18;;;18.50;99.90;;;;;;5075662;28;20032;-72
2023/08/11 07:02:34;;;;;;;25.10;10.75;;;18.50;99.90;;;;;;5067535;28;20033;-73
2023/08/11 07:05:01;;;;;;;22.27;10.30;;;18.50;99.90;;;;;;5067987;28;20029;-73
2023/08/11 07:07:26;;;;;;;22.65;10.70;;;18.50;99.90;;;;;;5075242;28;20029;-74
2023/08/11 07:09:52;;;;;;;17.92;9.52;;;18.50;99.90;;;;;;5063098;28;20028;-73
2023/08/11 07:12:17;;;;;;;21.38;10.05;;;18.60;99.90;;;;;;5069642;28;20115;-72
2023/08/11 07:14:43;;;;;;;21.25;9.57;;;18.60;99.90;;;;;;5067589;28;20485;-73
2023/08/11 07:17:10;;;;;;;19.30;9.90;;;18.60;99.90;;;;;;5068379;28;20041;-73
2023/08/11 07:19:36;;;;;;;17.52;9.80;;;18.60;99.90;;;;;;5067639;28;20716;-73
2023/08/11 07:22:02;;;;;;;20.95;10.23;;;18.70;99.90;;;;;;5062436;28;20036;-72
2023/08/11 07:24:28;;;;;;;22.30;10.68;;;18.80;99.90;;;;;;5080260;28;20028;-74
2023/08/11 07:26:53;;;;;;;17.67;9.77;;;18.90;99.90;;;;;;5074900;28;20029;-73
2023/08/11 07:29:19;;;;;;;18.50;9.50;;;19.00;99.90;;;;;;5066394;28;20072;-72
2023/08/11 07:31:45;;;;;;;21.25;10.07;;;19.10;99.90;;;;;;5065648;28;20062;-71
2023/08/11 07:34:10;;;;;;;23.20;9.57;;;19.20;99.90;;;;;;5066503;28;20310;-72
2023/08/11 07:36:37;;;;;;;21.60;9.45;;;19.30;99.90;;;;;;5081891;28;20040;-74
2023/08/11 07:39:03;;;;;;;21.67;9.27;;;19.40;99.90;;;;;;5072857;28;20047;-73
2023/08/11 07:41:29;;;;;;;21.88;9.57;;;19.50;99.90;;;;;;5071042;28;20017;-74
2023/08/11 07:43:54;;;;;;;20.33;8.60;;;19.60;99.90;;;;;;5067795;28;20052;-73
2023/08/11 07:46:20;;;;;;;18.65;8.68;;;19.60;99.90;;;;;;5064793;28;20029;-74
2023/08/11 07:48:46;;;;;;;17.92;8.88;;;19.70;99.90;;;;;;5067527;28;20044;-72
2023/08/11 07:51:14;;;;;;;15.68;7.85;;;19.80;99.90;;;;;;5073368;28;20056;-75
2023/08/11 07:53:39;;;;;;;12.13;7.47;;;19.90;99.90;;;;;;5065661;28;20103;-73
2023/08/11 07:56:05;;;;;;;13.50;7.55;;;20.00;99.90;;;;;;5070658;28;20812;-73
2023/08/11 07:58:31;;;;;;;15.23;6.80;;;20.10;99.90;;;;;;5072478;28;20416;-73
2023/08/11 08:00:57;;;;;;;14.63;6.90;;;20.20;99.90;;;;;;5077593;28;20029;-76
2023/08/11 08:03:23;;;;;;;10.40;6.13;;;20.30;99.90;;;;;;5069696;28;20070;-73
2023/08/11 08:05:48;;;;;;;10.10;5.28;;;20.30;99.90;;;;;;5066378;28;20032;-74
2023/08/11 08:08:15;;;;;;;8.25;4.60;;;20.40;99.90;;;;;;5069716;28;20032;-75
2023/08/11 08:10:42;;;;;;;5.72;4.13;;;20.50;99.90;;;;;;5080097;28;20028;-73
2023/08/11 08:13:07;;;;;;;9.57;4.05;;;20.60;99.90;;;;;;5071957;28;20161;-72
2023/08/11 08:15:33;;;;;;;6.38;3.20;;;20.70;99.90;;;;;;5067335;28;20025;-73
2023/08/11 08:17:58;;;;;;;5.00;2.80;;;20.70;99.90;;;;;;5075013;28;20048;-71
2023/08/11 08:20:24;;;;;;;4.82;2.30;;;20.80;99.90;;;;;;5066867;28;20035;-70
2023/08/11 08:22:50;;;;;;;3.58;2.88;;;20.80;99.90;;;;;;5073556;28;20036;-72
2023/08/11 08:25:15;;;;;;;4.57;2.85;;;20.90;99.90;;;;;;5065174;28;20033;-72
2023/08/11 08:27:42;;;;;;;4.72;2.40;;;20.90;99.90;;;;;;5066220;28;20033;-72
2023/08/11 08:30:10;;;;;;;3.95;2.55;;;21.00;99.90;;;;;;5068426;28;20131;-72
2023/08/11 08:32:36;;;;;;;3.95;2.30;;;21.10;99.90;;;;;;5076315;28;20471;-72
2023/08/11 08:35:03;;;;;;;3.78;2.28;;;21.10;99.90;;;;;;5076517;28;20055;-71
2023/08/11 08:37:28;;;;;;;3.42;2.28;;;21.20;99.90;;;;;;5064881;28;20177;-70
2023/08/11 08:39:55;;;;;;;6.47;2.65;;;21.30;99.90;;;;;;5066230;28;20017;-72
2023/08/11 08:42:24;;;;;;;3.20;2.25;;;21.40;99.90;;;;;;5066756;28;20032;-72
2023/08/11 08:44:52;;;;;;;3.85;2.08;;;21.50;99.90;;;;;;5065909;28;20025;-71
2023/08/11 08:47:20;;;;;;;3.15;2.10;;;21.70;99.90;;;;;;5067298;28;20029;-72
2023/08/11 08:49:48;;;;;;;3.80;2.33;;;21.80;99.90;;;;;;5077704;28;20066;-71
2023/08/11 08:52:15;;;;;;;5.00;2.53;;;22.00;99.90;;;;;;5085825;28;20465;-72
2023/08/11 08:54:41;;;;;;;3.33;2.00;;;22.10;99.90;;;;;;5086360;28;20097;-73
2023/08/11 08:57:09;;;;;;;4.43;1.80;;;22.10;99.90;;;;;;5082726;28;20044;-73
2023/08/11 08:59:36;;;;;;;2.70;2.03;;;22.20;99.90;;;;;;5070090;28;20081;-72
2023/08/11 09:02:04;;;;;;;3.80;2.25;;;22.20;99.90;;;;;;5071492;28;20124;-73
2023/08/11 09:04:30;;;;;;;3.33;1.58;;;22.30;99.90;;;;;;5065864;28;20032;-72
2023/08/11 09:06:56;;;;;;;3.30;1.52;;;22.30;99.90;;;;;;5064074;28;20047;-71
2023/08/11 09:09:23;;;;;;;2.05;1.30;;;22.40;99.90;;;;;;5063338;28;20045;-73
2023/08/11 09:11:53;;;;;;;1.52;1.08;;;22.40;99.90;;;;;;5064228;28;20694;-73
2023/08/11 09:14:20;;;;;;;5.63;1.70;;;22.40;99.90;;;;;;5065238;28;20017;-74
2023/08/11 09:16:48;;;;;;;4.10;1.50;;;22.50;99.90;;;;;;5080861;28;20033;-71
2023/08/11 09:19:15;;;;;;;2.45;1.70;;;22.50;99.90;;;;;;5084259;28;20600;-75
2023/08/11 09:21:42;;;;;;;1.40;1.23;;;22.60;99.90;;;;;;5084277;28;20028;-71
2023/08/11 09:24:13;;;;;;;2.78;1.48;;;22.70;99.90;;;;;;5084585;28;20501;-72
2023/08/11 09:26:44;;;;;;;1.42;1.30;;;22.70;99.90;;;;;;5084305;28;20032;-72
2023/08/11 09:29:11;;;;;;;4.10;1.60;;;22.80;99.90;;;;;;5085657;28;20043;-72
2023/08/11 09:31:37;;;;;;;1.75;1.40;;;22.80;99.90;;;;;;5085791;28;20028;-71
2023/08/11 09:34:15;;;;;;;2.13;1.67;;;22.90;99.90;;;;;;5083919;28;21137;-74
2023/08/11 09:36:42;;;;;;;2.30;1.40;;;23.00;99.90;;;;;;5085490;28;20032;-72
2023/08/11 09:39:08;;;;;;;3.90;1.48;;;23.00;99.90;;;;;;5085584;28;20027;-73
2023/08/11 09:41:43;;;;;;;6.03;1.55;;;23.10;99.90;;;;;;5073000;28;20036;-71
2023/08/11 09:44:10;;;;;;;1.70;1.10;;;23.10;99.90;;;;;;5064441;28;20402;-75
2023/08/11 09:46:38;;;;;;;2.65;1.23;;;23.10;99.90;;;;;;5065276;28;20029;-71
2023/08/11 09:49:05;;;;;;;2.03;1.60;;;23.10;99.90;;;;;;5065067;28;20037;-72
2023/08/11 09:51:33;;;;;;;2.20;1.55;;;23.10;99.90;;;;;;5064965;28;20498;-71
2023/08/11 09:54:06;;;;;;;5.25;1.80;;;23.10;99.90;;;;;;5064672;28;20421;-72
2023/08/11 09:56:35;;;;;;;3.13;1.88;;;23.20;99.90;;;;;;5065015;28;20036;-72
2023/08/11 09:59:09;;;;;;;2.38;1.58;;;23.10;99.90;;;;;;5065240;28;20017;-73
2023/08/11 10:01:35;;;;;;;2.08;1.52;;;23.20;99.90;;;;;;5066812;28;20475;-72
2023/08/11 10:04:07;;;;;;;2.72;1.63;;;23.20;99.90;;;;;;5084885;28;20048;-72
2023/08/11 10:06:36;;;;;;;2.50;1.60;;;23.30;99.90;;;;;;5082972;28;20024;-76
2023/08/11 10:09:03;;;;;;;2.25;1.48;;;23.40;99.90;;;;;;5084523;28;20078;-72
2023/08/11 10:11:33;;;;;;;2.05;1.60;;;23.40;99.90;;;;;;5085020;28;20017;-72
2023/08/11 10:14:02;;;;;;;2.08;1.52;;;23.50;99.90;;;;;;5082848;28;20024;-72
2023/08/11 10:16:28;;;;;;;7.30;1.73;;;23.60;99.90;;;;;;5084331;28;20107;-72
2023/08/11 10:18:55;;;;;;;1.35;1.23;;;23.70;99.90;;;;;;5084883;28;20025;-73
2023/08/11 10:21:22;;;;;;;2.03;1.40;;;23.60;99.90;;;;;;5084315;28;20083;-71
2023/08/11 10:23:48;;;;;;;2.63;1.50;;;23.60;99.90;;;;;;5084654;28;20025;-74
2023/08/11 10:26:14;;;;;;;2.38;1.50;;;23.70;99.90;;;;;;5084756;28;20020;-73
2023/08/11 10:28:40;;;;;;;4.60;1.55;;;23.70;99.90;;;;;;5084192;28;20378;-72
2023/08/11 10:31:06;;;;;;;4.50;1.55;;;23.80;99.90;;;;;;5082940;28;20048;-71
2023/08/11 10:33:32;;;;;;;2.13;1.45;;;23.80;99.90;;;;;;5084579;28;20875;-72
2023/08/11 10:36:00;;;;;;;2.95;1.77;;;23.80;99.90;;;;;;5082755;28;20025;-71
2023/08/11 10:38:27;;;;;;;1.95;1.30;;;23.90;99.90;;;;;;5084263;28;20028;-71
2023/08/11 10:41:18;;;;;;;3.47;1.60;;;24.00;99.90;;;;;;5083253;28;20036;-72
2023/08/11 10:43:47;;;;;;;1.63;1.40;;;24.10;99.90;;;;;;5083970;28;20031;-72
2023/08/11 10:46:24;;;;;;;2.67;1.60;;;24.10;99.90;;;;;;5084583;28;20024;-69
2023/08/11 10:48:56;;;;;;;3.90;1.50;;;24.10;99.90;;;;;;5084145;28;20033;-72
2023/08/11 10:51:33;;;;;;;3.08;1.40;;;24.10;99.90;;;;;;5083977;28;20040;-71
2023/08/11 10:54:09;;;;;;;2.45;1.50;;;24.20;99.90;;;;;;5084347;28;20044;-72
2023/08/11 10:56:41;;;;;;;2.60;1.42;;;24.30;99.90;;;;;;5082669;28;20330;-69
2023/08/11 10:59:17;;;;;;;1.92;1.23;;;24.40;99.90;;;;;;5082617;28;20024;-72
2023/08/11 11:01:48;;;;;;;2.42;1.38;;;24.40;99.90;;;;;;5084162;28;20025;-70
2023/08/11 11:04:15;;;;;;;3.05;1.52;;;24.40;99.90;;;;;;5084085;28;20066;-71
2023/08/11 11:06:47;;;;;;;3.45;1.60;;;24.50;99.90;;;;;;5084164;28;20020;-75
2023/08/11 11:09:13;;;;;;;2.95;1.80;;;24.50;99.90;;;;;;5084384;28;20017;-70
2023/08/11 11:11:39;;;;;;;3.20;1.65;;;24.60;99.90;;;;;;5084159;28;20028;-72
2023/08/11 11:14:07;;;;;;;2.13;1.58;;;24.60;99.90;;;;;;5084143;28;20032;-74
2023/08/11 11:16:33;;;;;;;2.20;1.45;;;24.60;99.90;;;;;;5082515;28;20032;-72
2023/08/11 11:19:03;;;;;;;3.58;2.00;;;24.70;99.90;;;;;;5083596;28;20036;-72
2023/08/11 11:21:30;;;;;;;3.13;1.77;;;24.80;99.90;;;;;;5082775;28;20032;-72
2023/08/11 11:23:56;;;;;;;4.30;1.42;;;24.90;99.90;;;;;;5083929;28;20088;-71
2023/08/11 11:26:24;;;;;;;2.00;1.52;;;25.00;99.90;;;;;;5086442;28;20059;-71
2023/08/11 11:28:51;;;;;;;2.45;1.60;;;25.00;99.90;;;;;;5086518;28;20048;-73
2023/08/11 11:31:18;;;;;;;2.42;1.95;;;25.10;99.90;;;;;;5086464;28;20115;-73
2023/08/11 11:33:44;;;;;;;3.75;2.03;;;25.20;99.90;;;;;;5086272;28;20024;-69
2023/08/11 11:36:10;;;;;;;5.07;1.80;;;25.30;99.90;;;;;;5088006;28;20051;-72
2023/08/11 11:38:36;;;;;;;2.92;1.77;;;25.30;99.90;;;;;;5086174;28;20320;-71
2023/08/11 11:41:02;;;;;;;3.83;1.70;;;25.40;99.90;;;;;;5087567;28;20084;-73
2023/08/11 11:43:27;;;;;;;3.35;1.90;;;25.40;99.90;;;;;;5086237;28;20024;-71
2023/08/11 11:45:54;;;;;;;3.80;1.90;;;25.50;99.90;;;;;;5085979;28;20021;-71
2023/08/11 11:48:29;;;;;;;3.47;1.90;;;25.60;99.90;;;;;;5086056;28;20380;-72
2023/08/11 11:50:55;;;;;;;3.28;1.83;;;25.70;99.90;;;;;;5086347;28;20427;-72
2023/08/11 11:53:24;;;;;;;2.88;1.77;;;25.70;99.90;;;;;;5087017;28;20066;-70
2023/08/11 11:55:51;;;;;;;1.95;1.70;;;25.80;99.90;;;;;;5087118;28;20045;-72
2023/08/11 11:58:17;;;;;;;7.28;1.95;;;25.90;99.90;;;;;;5085904;28;20020;-72
2023/08/11 12:00:46;;;;;;;2.25;1.80;;;25.90;99.90;;;;;;5085665;28;20055;-75
2023/08/11 12:03:12;;;;;;;3.28;1.90;;;25.90;99.90;;;;;;5087007;28;20021;-73
2023/08/11 12:05:38;;;;;;;2.47;1.95;;;25.90;99.90;;;;;;5087361;28;20025;-71
2023/08/11 12:08:22;;;;;;;3.53;2.10;;;25.90;99.90;;;;;;5085126;28;20063;-72
2023/08/11 12:10:48;;;;;;;6.07;2.22;;;25.90;99.90;;;;;;5086135;28;20138;-75
2023/08/11 12:13:15;;;;;;;2.00;1.80;;;26.00;99.90;;;;;;5085711;28;20032;-73
2023/08/11 12:15:41;;;;;;;4.85;1.77;;;26.10;99.90;;;;;;5084198;28;20025;-74
2023/08/11 12:18:06;;;;;;;6.15;1.80;;;26.10;99.90;;;;;;5086031;28;20040;-73
2023/08/11 12:20:34;;;;;;;1.70;1.60;;;26.10;99.90;;;;;;5085667;28;20028;-71
2023/08/11 12:22:59;;;;;;;3.70;2.20;;;26.20;99.90;;;;;;5085165;28;20032;-72
2023/08/11 12:25:25;;;;;;;3.40;2.08;;;26.30;99.90;;;;;;5085455;28;20059;-72
2023/08/11 12:27:53;;;;;;;5.10;2.00;;;26.40;99.90;;;;;;5086741;28;20024;-74
2023/08/11 12:30:19;;;;;;;3.78;1.77;;;26.40;99.90;;;;;;5086615;28;20024;-71
2023/08/11 12:32:45;;;;;;;2.97;1.90;;;26.40;99.90;;;;;;5087044;28;20024;-71
2023/08/11 12:35:11;;;;;;;4.03;2.00;;;26.50;99.90;;;;;;5086782;28;20029;-73
2023/08/11 12:37:37;;;;;;;3.17;1.60;;;26.60;99.90;;;;;;5084586;28;20603;-72
2023/08/11 12:40:03;;;;;;;2.20;1.65;;;26.80;99.90;;;;;;5085316;28;20040;-71
2023/08/11 12:42:29;;;;;;;3.53;1.60;;;26.90;99.90;;;;;;5086219;28;20021;-72